sensor_id;sensor_type;location;lat;lon;timestamp;pressure;altitude;pressure_sealevel;temperature;humidity
64889;BME280;51386;53.082;8.816;2022-09-13T00:01:57;100843.91;;;23.61;45.78
64889;BME280;51386;53.082;8.816;2022-09-13T00:04:25;100846.09;;;23.64;45.97
64889;BME280;51386;53.082;8.816;2022-09-13T00:06:52;100843.41;;;23.64;45.89
64889;BME280;51386;53.082;8.816;2022-09-13T00:09:19;100839.06;;;23.63;46.07
64889;BME280;51386;53.082;8.816;2022-09-13T00:11:48;100835.28;;;23.59;46.23
64889;BME280;51386;53.082;8.816;2022-09-13T00:14:15;100836.34;;;23.53;46.21
64889;BME280;51386;53.082;8.816;2022-09-13T00:16:42;100833.38;;;23.54;46.25
64889;BME280;51386;53.082;8.816;2022-09-13T00:19:10;100830.13;;;23.52;46.49
64889;BME280;51386;53.082;8.816;2022-09-13T00:21:37;100835.50;;;23.52;46.31
64889;BME280;51386;53.082;8.816;2022-09-13T00:24:05;100822.06;;;23.52;46.43
64889;BME280;51386;53.082;8.816;2022-09-13T00:26:32;100823.94;;;23.52;46.50
64889;BME280;51386;53.082;8.816;2022-09-13T00:29:00;100816.94;;;23.51;46.49
64889;BME280;51386;53.082;8.816;2022-09-13T00:31:28;100814.78;;;23.48;46.88
64889;BME280;51386;53.082;8.816;2022-09-13T00:33:58;100806.41;;;23.44;46.76
64889;BME280;51386;53.082;8.816;2022-09-13T00:36:26;100814.75;;;23.43;46.76
64889;BME280;51386;53.082;8.816;2022-09-13T00:38:53;100812.56;;;23.40;47.18
64889;BME280;51386;53.082;8.816;2022-09-13T00:41:21;100812.03;;;23.38;47.21
64889;BME280;51386;53.082;8.816;2022-09-13T00:43:51;100828.88;;;23.33;47.35
64889;BME280;51386;53.082;8.816;2022-09-13T00:46:40;100840.69;;;23.32;47.51
64889;BME280;51386;53.082;8.816;2022-09-13T00:49:14;100841.31;;;23.39;47.70
64889;BME280;51386;53.082;8.816;2022-09-13T00:51:48;100836.75;;;23.40;48.47
64889;BME280;51386;53.082;8.816;2022-09-13T00:54:20;100831.38;;;23.40;48.37
64889;BME280;51386;53.082;8.816;2022-09-13T00:56:53;100832.47;;;23.39;49.16
64889;BME280;51386;53.082;8.816;2022-09-13T00:59:24;100815.75;;;23.37;49.76
64889;BME280;51386;53.082;8.816;2022-09-13T01:01:56;100812.84;;;23.38;49.57
64889;BME280;51386;53.082;8.816;2022-09-13T01:04:28;100797.00;;;23.42;49.74
64889;BME280;51386;53.082;8.816;2022-09-13T01:07:02;100806.13;;;23.41;50.09
64889;BME280;51386;53.082;8.816;2022-09-13T01:09:32;100842.44;;;23.43;49.69
64889;BME280;51386;53.082;8.816;2022-09-13T01:12:12;100831.13;;;23.41;50.12
64889;BME280;51386;53.082;8.816;2022-09-13T01:14:45;100808.28;;;23.44;50.06
64889;BME280;51386;53.082;8.816;2022-09-13T01:17:15;100802.91;;;23.44;50.52
64889;BME280;51386;53.082;8.816;2022-09-13T01:19:42;100804.56;;;23.45;50.57
64889;BME280;51386;53.082;8.816;2022-09-13T01:22:43;100796.16;;;23.36;50.67
64889;BME280;51386;53.082;8.816;2022-09-13T01:25:59;100800.66;;;23.31;50.68
64889;BME280;51386;53.082;8.816;2022-09-13T01:29:07;100794.72;;;23.29;51.29
64889;BME280;51386;53.082;8.816;2022-09-13T01:31:50;100809.25;;;23.33;51.27
64889;BME280;51386;53.082;8.816;2022-09-13T01:34:35;100782.91;;;23.30;51.28
64889;BME280;51386;53.082;8.816;2022-09-13T01:37:32;100788.50;;;23.23;52.95
64889;BME280;51386;53.082;8.816;2022-09-13T01:40:16;100783.34;;;23.17;52.98
64889;BME280;51386;53.082;8.816;2022-09-13T01:43:06;100775.41;;;23.00;53.11
64889;BME280;51386;53.082;8.816;2022-09-13T01:45:52;100769.94;;;22.90;53.95
64889;BME280;51386;53.082;8.816;2022-09-13T01:48:36;100770.72;;;22.85;53.60
64889;BME280;51386;53.082;8.816;2022-09-13T01:51:16;100768.88;;;22.91;52.99
64889;BME280;51386;53.082;8.816;2022-09-13T01:54:00;100759.50;;;22.94;53.48
64889;BME280;51386;53.082;8.816;2022-09-13T01:56:40;100742.84;;;22.92;53.56
64889;BME280;51386;53.082;8.816;2022-09-13T01:59:15;100755.09;;;22.82;54.01
64889;BME280;51386;53.082;8.816;2022-09-13T02:01:54;100749.66;;;22.72;54.80
64889;BME280;51386;53.082;8.816;2022-09-13T02:04:29;100747.91;;;22.61;54.73
64889;BME280;51386;53.082;8.816;2022-09-13T02:07:08;100749.97;;;22.54;55.06
64889;BME280;51386;53.082;8.816;2022-09-13T02:09:45;100748.31;;;22.48;55.24
64889;BME280;51386;53.082;8.816;2022-09-13T02:12:19;100744.47;;;22.39;55.84
64889;BME280;51386;53.082;8.816;2022-09-13T02:14:54;100744.47;;;22.39;56.16
64889;BME280;51386;53.082;8.816;2022-09-13T02:17:28;100740.69;;;22.40;56.34
64889;BME280;51386;53.082;8.816;2022-09-13T02:20:06;100728.53;;;22.33;55.97
64889;BME280;51386;53.082;8.816;2022-09-13T02:22:42;100734.16;;;22.31;56.01
64889;BME280;51386;53.082;8.816;2022-09-13T02:25:15;100738.97;;;22.29;56.88
64889;BME280;51386;53.082;8.816;2022-09-13T02:27:48;100731.69;;;22.24;56.56
64889;BME280;51386;53.082;8.816;2022-09-13T02:30:18;100726.81;;;22.21;56.86
64889;BME280;51386;53.082;8.816;2022-09-13T02:32:52;100724.38;;;22.20;56.73
64889;BME280;51386;53.082;8.816;2022-09-13T02:35:26;100716.56;;;22.18;56.88
64889;BME280;51386;53.082;8.816;2022-09-13T02:38:02;100727.63;;;22.22;56.99
64889;BME280;51386;53.082;8.816;2022-09-13T02:40:38;100729.75;;;22.20;56.87
64889;BME280;51386;53.082;8.816;2022-09-13T02:43:13;100722.25;;;22.22;56.69
64889;BME280;51386;53.082;8.816;2022-09-13T02:45:50;100727.06;;;22.20;57.01
64889;BME280;51386;53.082;8.816;2022-09-13T02:48:28;100729.75;;;22.20;56.83
64889;BME280;51386;53.082;8.816;2022-09-13T02:51:11;100730.38;;;22.27;56.82
64889;BME280;51386;53.082;8.816;2022-09-13T02:53:50;100731.81;;;22.40;56.66
64889;BME280;51386;53.082;8.816;2022-09-13T02:56:26;100730.06;;;22.50;56.42
64889;BME280;51386;53.082;8.816;2022-09-13T02:59:02;100715.72;;;22.61;55.96
64889;BME280;51386;53.082;8.816;2022-09-13T03:01:34;100713.09;;;22.66;56.09
64889;BME280;51386;53.082;8.816;2022-09-13T03:04:02;100711.47;;;22.65;55.98
64889;BME280;51386;53.082;8.816;2022-09-13T03:06:31;100720.25;;;22.61;55.91
64889;BME280;51386;53.082;8.816;2022-09-13T03:09:02;100714.25;;;22.54;55.88
64889;BME280;51386;53.082;8.816;2022-09-13T03:11:45;100723.59;;;22.46;56.10
64889;BME280;51386;53.082;8.816;2022-09-13T03:14:32;100727.00;;;22.42;56.34
64889;BME280;51386;53.082;8.816;2022-09-13T03:17:17;100721.34;;;22.38;56.81
64889;BME280;51386;53.082;8.816;2022-09-13T03:20:05;100723.97;;;22.33;57.13
64889;BME280;51386;53.082;8.816;2022-09-13T03:23:32;100716.38;;;22.25;57.10
64889;BME280;51386;53.082;8.816;2022-09-13T03:26:29;100715.59;;;22.24;57.58
64889;BME280;51386;53.082;8.816;2022-09-13T03:29:19;100713.13;;;22.23;57.36
64889;BME280;51386;53.082;8.816;2022-09-13T03:32:05;100704.03;;;22.24;57.40
64889;BME280;51386;53.082;8.816;2022-09-13T03:34:45;100710.22;;;22.24;57.49
64889;BME280;51386;53.082;8.816;2022-09-13T03:37:26;100708.59;;;22.23;57.74
64889;BME280;51386;53.082;8.816;2022-09-13T03:40:01;100710.47;;;22.23;57.85
64889;BME280;51386;53.082;8.816;2022-09-13T03:42:36;100715.25;;;22.21;57.68
64889;BME280;51386;53.082;8.816;2022-09-13T03:45:10;100714.44;;;22.20;57.97
64889;BME280;51386;53.082;8.816;2022-09-13T03:47:42;100713.66;;;22.20;57.82
64889;BME280;51386;53.082;8.816;2022-09-13T03:50:17;100723.88;;;22.23;57.71
64889;BME280;51386;53.082;8.816;2022-09-13T03:52:49;100716.44;;;22.30;57.60
64889;BME280;51386;53.082;8.816;2022-09-13T03:55:20;100708.38;;;22.30;58.16
64889;BME280;51386;53.082;8.816;2022-09-13T03:57:48;100708.91;;;22.27;57.88
64889;BME280;51386;53.082;8.816;2022-09-13T04:00:16;100716.97;;;22.27;58.21
64889;BME280;51386;53.082;8.816;2022-09-13T04:02:44;100720.25;;;22.34;57.73
64889;BME280;51386;53.082;8.816;2022-09-13T04:05:11;100729.47;;;22.43;57.55
64889;BME280;51386;53.082;8.816;2022-09-13T04:07:39;100718.53;;;22.50;57.50
64889;BME280;51386;53.082;8.816;2022-09-13T04:10:08;100723.69;;;22.56;57.28
64889;BME280;51386;53.082;8.816;2022-09-13T04:12:41;100724.31;;;22.63;57.00
64889;BME280;51386;53.082;8.816;2022-09-13T04:15:09;100726.56;;;22.71;56.66
64889;BME280;51386;53.082;8.816;2022-09-13T04:17:36;100723.09;;;22.76;56.52
64889;BME280;51386;53.082;8.816;2022-09-13T04:20:04;100721.78;;;22.78;56.40
64889;BME280;51386;53.082;8.816;2022-09-13T04:22:31;100726.66;;;22.81;56.59
64889;BME280;51386;53.082;8.816;2022-09-13T04:24:59;100714.59;;;22.84;56.28
64889;BME280;51386;53.082;8.816;2022-09-13T04:27:28;100719.66;;;22.80;56.14
64889;BME280;51386;53.082;8.816;2022-09-13T04:29:57;100727.16;;;22.78;56.27
64889;BME280;51386;53.082;8.816;2022-09-13T04:32:24;100718.06;;;22.79;56.25
64889;BME280;51386;53.082;8.816;2022-09-13T04:34:51;100715.91;;;22.81;56.24
64889;BME280;51386;53.082;8.816;2022-09-13T04:37:19;100721.28;;;22.81;56.10
64889;BME280;51386;53.082;8.816;2022-09-13T04:39:47;100722.09;;;22.82;56.17
64889;BME280;51386;53.082;8.816;2022-09-13T04:42:14;100723.69;;;22.83;56.15
64889;BME280;51386;53.082;8.816;2022-09-13T04:44:41;100712.47;;;22.86;56.08
64889;BME280;51386;53.082;8.816;2022-09-13T04:47:12;100727.75;;;22.85;56.33
64889;BME280;51386;53.082;8.816;2022-09-13T04:49:39;100723.69;;;22.83;56.44
64889;BME280;51386;53.082;8.816;2022-09-13T04:52:06;100728.25;;;22.82;56.67
64889;BME280;51386;53.082;8.816;2022-09-13T04:54:34;100728.25;;;22.82;56.59
64889;BME280;51386;53.082;8.816;2022-09-13T04:57:01;100729.56;;;22.80;56.43
64889;BME280;51386;53.082;8.816;2022-09-13T04:59:28;100727.41;;;22.77;56.68
64889;BME280;51386;53.082;8.816;2022-09-13T05:01:58;100740.78;;;22.72;57.03
64889;BME280;51386;53.082;8.816;2022-09-13T05:04:27;100734.56;;;22.66;57.30
64889;BME280;51386;53.082;8.816;2022-09-13T05:06:54;100733.44;;;22.62;57.63
64889;BME280;51386;53.082;8.816;2022-09-13T05:09:22;100734.72;;;22.60;57.46
64889;BME280;51386;53.082;8.816;2022-09-13T05:11:49;100737.66;;;22.58;57.74
64889;BME280;51386;53.082;8.816;2022-09-13T05:14:17;100734.41;;;22.56;57.92
64889;BME280;51386;53.082;8.816;2022-09-13T05:16:44;100733.09;;;22.59;58.01
64889;BME280;51386;53.082;8.816;2022-09-13T05:19:11;100729.69;;;22.63;58.13
64889;BME280;51386;53.082;8.816;2022-09-13T05:21:40;100734.88;;;22.70;58.33
64889;BME280;51386;53.082;8.816;2022-09-13T05:24:08;100738.94;;;22.77;58.36
64889;BME280;51386;53.082;8.816;2022-09-13T05:26:35;100745.44;;;22.81;58.35
64889;BME280;51386;53.082;8.816;2022-09-13T05:29:03;100740.13;;;22.86;58.35
64889;BME280;51386;53.082;8.816;2022-09-13T05:31:34;100741.72;;;22.87;58.21
64889;BME280;51386;53.082;8.816;2022-09-13T05:34:04;100748.22;;;22.92;58.17
64889;BME280;51386;53.082;8.816;2022-09-13T05:36:33;100746.31;;;22.92;58.18
64889;BME280;51386;53.082;8.816;2022-09-13T05:39:03;100748.22;;;22.92;58.04
64889;BME280;51386;53.082;8.816;2022-09-13T05:41:51;100736.66;;;22.91;58.42
64889;BME280;51386;53.082;8.816;2022-09-13T05:44:18;100731.34;;;22.96;58.67
64889;BME280;51386;53.082;8.816;2022-09-13T05:46:46;100729.75;;;23.00;58.71
64889;BME280;51386;53.082;8.816;2022-09-13T05:49:14;100733.31;;;23.06;58.43
64889;BME280;51386;53.082;8.816;2022-09-13T05:51:42;100734.41;;;23.10;58.49
64889;BME280;51386;53.082;8.816;2022-09-13T05:54:12;100744.88;;;23.11;58.60
64889;BME280;51386;53.082;8.816;2022-09-13T05:56:39;100732.25;;;23.12;58.47
64889;BME280;51386;53.082;8.816;2022-09-13T05:59:10;100736.00;;;23.11;58.44
64889;BME280;51386;53.082;8.816;2022-09-13T06:01:38;100735.44;;;23.09;58.37
64889;BME280;51386;53.082;8.816;2022-09-13T06:04:06;100741.91;;;23.08;58.70
64889;BME280;51386;53.082;8.816;2022-09-13T06:06:34;100753.97;;;23.05;58.96
64889;BME280;51386;53.082;8.816;2022-09-13T06:09:02;100743.72;;;23.02;58.85
64889;BME280;51386;53.082;8.816;2022-09-13T06:11:31;100742.09;;;23.01;58.98
64889;BME280;51386;53.082;8.816;2022-09-13T06:13:58;100744.00;;;23.01;59.20
64889;BME280;51386;53.082;8.816;2022-09-13T06:16:26;100754.19;;;22.99;59.38
64889;BME280;51386;53.082;8.816;2022-09-13T06:18:53;100752.56;;;22.98;59.25
64889;BME280;51386;53.082;8.816;2022-09-13T06:21:22;100741.00;;;22.97;59.37
64889;BME280;51386;53.082;8.816;2022-09-13T06:23:55;100753.38;;;22.98;59.46
64889;BME280;51386;53.082;8.816;2022-09-13T06:26:25;100742.09;;;23.01;59.45
64889;BME280;51386;53.082;8.816;2022-09-13T06:28:56;100743.72;;;23.02;59.37
64889;BME280;51386;53.082;8.816;2022-09-13T06:31:26;100736.00;;;23.06;59.70
64889;BME280;51386;53.082;8.816;2022-09-13T06:33:58;100740.59;;;23.10;59.46
64889;BME280;51386;53.082;8.816;2022-09-13T06:36:26;100745.44;;;23.13;59.53
64889;BME280;51386;53.082;8.816;2022-09-13T06:38:53;100745.44;;;23.13;59.40
64889;BME280;51386;53.082;8.816;2022-09-13T06:41:23;100746.78;;;23.16;59.07
64889;BME280;51386;53.082;8.816;2022-09-13T06:43:55;100739.28;;;23.18;59.06
64889;BME280;51386;53.082;8.816;2022-09-13T06:46:25;100744.41;;;23.19;59.00
64889;BME280;51386;53.082;8.816;2022-09-13T06:48:53;100745.22;;;23.20;58.92
64889;BME280;51386;53.082;8.816;2022-09-13T06:51:23;100745.22;;;23.20;58.74
64889;BME280;51386;53.082;8.816;2022-09-13T06:53:52;100749.53;;;23.21;58.89
64889;BME280;51386;53.082;8.816;2022-09-13T06:56:25;100739.84;;;23.20;58.71
64889;BME280;51386;53.082;8.816;2022-09-13T06:58:58;100752.19;;;23.21;58.78
64889;BME280;51386;53.082;8.816;2022-09-13T07:01:28;100762.41;;;23.19;58.90
64889;BME280;51386;53.082;8.816;2022-09-13T07:04:00;100751.66;;;23.19;58.85
64889;BME280;51386;53.082;8.816;2022-09-13T07:06:30;100758.41;;;23.21;58.84
64889;BME280;51386;53.082;8.816;2022-09-13T07:09:00;100757.06;;;23.24;58.86
64889;BME280;51386;53.082;8.816;2022-09-13T07:11:33;100762.50;;;23.29;58.95
64889;BME280;51386;53.082;8.816;2022-09-13T07:14:03;100753.09;;;23.31;58.88
64889;BME280;51386;53.082;8.816;2022-09-13T07:16:35;100755.03;;;23.36;58.61
64889;BME280;51386;53.082;8.816;2022-09-13T07:19:06;100758.00;;;23.39;58.90
64889;BME280;51386;53.082;8.816;2022-09-13T07:21:34;100762.66;;;23.49;58.97
64889;BME280;51386;53.082;8.816;2022-09-13T07:24:02;100764.38;;;23.65;58.87
64889;BME280;51386;53.082;8.816;2022-09-13T07:26:30;100768.78;;;23.81;58.73
64889;BME280;51386;53.082;8.816;2022-09-13T07:29:00;100765.56;;;23.89;58.16
64889;BME280;51386;53.082;8.816;2022-09-13T07:31:32;100770.94;;;23.89;58.07
64889;BME280;51386;53.082;8.816;2022-09-13T07:34:02;100767.19;;;23.90;58.03
64889;BME280;51386;53.082;8.816;2022-09-13T07:36:33;100762.91;;;23.94;57.77
64889;BME280;51386;53.082;8.816;2022-09-13T07:39:01;100773.16;;;23.97;58.14
64889;BME280;51386;53.082;8.816;2022-09-13T07:41:31;100766.16;;;24.01;57.87
64889;BME280;51386;53.082;8.816;2022-09-13T07:44:00;100765.91;;;24.03;57.67
64889;BME280;51386;53.082;8.816;2022-09-13T07:46:36;100767.88;;;24.12;57.87
64889;BME280;51386;53.082;8.816;2022-09-13T07:49:06;100769.22;;;24.20;57.97
64889;BME280;51386;53.082;8.816;2022-09-13T07:51:36;100779.22;;;24.25;57.38
64889;BME280;51386;53.082;8.816;2022-09-13T07:54:10;100784.59;;;24.30;57.70
64889;BME280;51386;53.082;8.816;2022-09-13T07:56:39;100784.63;;;24.35;56.97
64889;BME280;51386;53.082;8.816;2022-09-13T07:59:13;100789.50;;;24.38;57.22
64889;BME280;51386;53.082;8.816;2022-09-13T08:01:43;100784.09;;;24.38;56.60
64889;BME280;51386;53.082;8.816;2022-09-13T08:04:15;100787.59;;;24.33;56.96
64889;BME280;51386;53.082;8.816;2022-09-13T08:06:44;100781.66;;;24.31;56.87
64889;BME280;51386;53.082;8.816;2022-09-13T08:09:15;100779.22;;;24.30;56.83
64889;BME280;51386;53.082;8.816;2022-09-13T08:11:45;100785.19;;;24.32;57.51
64889;BME280;51386;53.082;8.816;2022-09-13T08:14:15;100787.59;;;24.33;56.92
64889;BME280;51386;53.082;8.816;2022-09-13T08:16:44;100786.78;;;24.33;57.10
64889;BME280;51386;53.082;8.816;2022-09-13T08:19:15;100788.94;;;24.31;56.69
64889;BME280;51386;53.082;8.816;2022-09-13T08:21:43;100794.81;;;24.28;56.76
64889;BME280;51386;53.082;8.816;2022-09-13T08:24:14;100794.28;;;24.26;57.09
64889;BME280;51386;53.082;8.816;2022-09-13T08:26:43;100793.22;;;24.27;56.79
64889;BME280;51386;53.082;8.816;2022-09-13T08:29:12;100809.38;;;24.27;56.86
64889;BME280;51386;53.082;8.816;2022-09-13T08:31:40;100801.00;;;24.23;57.05
64889;BME280;51386;53.082;8.816;2022-09-13T08:34:11;100804.78;;;24.22;56.97
64889;BME280;51386;53.082;8.816;2022-09-13T08:36:40;100802.34;;;24.20;57.32
64889;BME280;51386;53.082;8.816;2022-09-13T08:39:09;100815.50;;;24.17;57.26
64889;BME280;51386;53.082;8.816;2022-09-13T08:42:01;100827.03;;;24.07;57.52
64889;BME280;51386;53.082;8.816;2022-09-13T08:44:34;100823.78;;;24.05;57.08
64889;BME280;51386;53.082;8.816;2022-09-13T08:47:25;100815.09;;;23.93;57.11
64889;BME280;51386;53.082;8.816;2022-09-13T08:50:05;100827.41;;;23.89;56.81
64889;BME280;51386;53.082;8.816;2022-09-13T08:52:44;100820.94;;;23.85;57.27
64889;BME280;51386;53.082;8.816;2022-09-13T08:55:24;100822.03;;;23.89;57.19
64889;BME280;51386;53.082;8.816;2022-09-13T08:58:00;100827.44;;;23.94;57.51
64889;BME280;51386;53.082;8.816;2022-09-13T09:00:37;100821.06;;;24.00;57.08
64889;BME280;51386;53.082;8.816;2022-09-13T09:03:20;100822.13;;;24.04;56.74
64889;BME280;51386;53.082;8.816;2022-09-13T09:05:51;100822.50;;;24.18;56.77
64889;BME280;51386;53.082;8.816;2022-09-13T09:08:30;100821.75;;;24.33;56.36
64889;BME280;51386;53.082;8.816;2022-09-13T09:11:07;100820.47;;;24.45;56.18
64889;BME280;51386;53.082;8.816;2022-09-13T09:13:49;100829.38;;;24.56;56.13
64889;BME280;51386;53.082;8.816;2022-09-13T09:16:32;100817.66;;;24.92;55.27
64889;BME280;51386;53.082;8.816;2022-09-13T09:19:15;100815.03;;;25.47;54.40
64889;BME280;51386;53.082;8.816;2022-09-13T09:21:49;100810.88;;;26.69;53.03
64889;BME280;51386;53.082;8.816;2022-09-13T09:24:22;100810.16;;;28.17;50.52
64889;BME280;51386;53.082;8.816;2022-09-13T09:26:51;100813.75;;;29.76;47.04
64889;BME280;51386;53.082;8.816;2022-09-13T09:29:22;100808.91;;;31.04;43.99
64889;BME280;51386;53.082;8.816;2022-09-13T09:32:05;100808.84;;;32.01;42.31
64889;BME280;51386;53.082;8.816;2022-09-13T09:34:50;100805.19;;;33.13;39.53
64889;BME280;51386;53.082;8.816;2022-09-13T09:37:24;100806.22;;;33.64;38.01
64889;BME280;51386;53.082;8.816;2022-09-13T09:39:54;100824.72;;;33.41;37.78
64889;BME280;51386;53.082;8.816;2022-09-13T09:42:33;100811.41;;;32.62;37.21
64889;BME280;51386;53.082;8.816;2022-09-13T09:45:23;100819.56;;;31.67;38.38
64889;BME280;51386;53.082;8.816;2022-09-13T09:47:54;100828.66;;;30.96;38.78
64889;BME280;51386;53.082;8.816;2022-09-13T09:50:26;100823.66;;;30.26;39.36
64889;BME280;51386;53.082;8.816;2022-09-13T09:53:02;100825.06;;;29.83;39.22
64889;BME280;51386;53.082;8.816;2022-09-13T09:55:40;100815.31;;;29.49;40.18
64889;BME280;51386;53.082;8.816;2022-09-13T09:58:11;100819.09;;;29.16;40.01
64889;BME280;51386;53.082;8.816;2022-09-13T10:00:51;100822.63;;;28.98;40.11
64889;BME280;51386;53.082;8.816;2022-09-13T10:03:24;100819.47;;;29.74;39.80
64889;BME280;51386;53.082;8.816;2022-09-13T10:06:05;100820.84;;;31.16;38.23
64889;BME280;51386;53.082;8.816;2022-09-13T10:08:36;100809.63;;;32.66;35.16
64889;BME280;51386;53.082;8.816;2022-09-13T10:11:06;100807.47;;;34.33;32.81
64889;BME280;51386;53.082;8.816;2022-09-13T10:13:33;100808.34;;;35.73;30.05
64889;BME280;51386;53.082;8.816;2022-09-13T10:16:04;100817.47;;;36.38;28.44
64889;BME280;51386;53.082;8.816;2022-09-13T10:18:35;100805.28;;;35.87;27.29
64889;BME280;51386;53.082;8.816;2022-09-13T10:21:23;100809.41;;;35.03;29.03
64889;BME280;51386;53.082;8.816;2022-09-13T10:24:16;100806.66;;;34.62;28.67
64889;BME280;51386;53.082;8.816;2022-09-13T10:26:47;100805.94;;;34.94;29.25
64889;BME280;51386;53.082;8.816;2022-09-13T10:29:16;100796.47;;;35.81;27.59
64889;BME280;51386;53.082;8.816;2022-09-13T10:31:48;100795.66;;;36.81;26.42
64889;BME280;51386;53.082;8.816;2022-09-13T10:34:23;100799.59;;;37.67;25.33
64889;BME280;51386;53.082;8.816;2022-09-13T10:36:56;100798.56;;;38.37;24.71
64889;BME280;51386;53.082;8.816;2022-09-13T10:39:30;100801.84;;;38.62;24.21
64889;BME280;51386;53.082;8.816;2022-09-13T10:42:02;100800.19;;;38.57;23.74
64889;BME280;51386;53.082;8.816;2022-09-13T10:44:38;100790.75;;;38.24;24.53
64889;BME280;51386;53.082;8.816;2022-09-13T10:49:57;100798.72;;;36.52;24.21
64889;BME280;51386;53.082;8.816;2022-09-13T10:52:29;100804.69;;;35.69;25.79
64889;BME280;51386;53.082;8.816;2022-09-13T10:55:30;100802.63;;;35.01;26.64
64889;BME280;51386;53.082;8.816;2022-09-13T10:58:18;100799.22;;;34.42;26.57
64889;BME280;51386;53.082;8.816;2022-09-13T11:01:21;100797.31;;;34.13;27.06
64889;BME280;51386;53.082;8.816;2022-09-13T11:04:38;100799.53;;;33.82;27.48
64889;BME280;51386;53.082;8.816;2022-09-13T11:07:30;100798.03;;;33.47;27.65
64889;BME280;51386;53.082;8.816;2022-09-13T11:10:16;100796.03;;;32.92;28.16
64889;BME280;51386;53.082;8.816;2022-09-13T11:12:56;100802.06;;;32.38;28.56
64889;BME280;51386;53.082;8.816;2022-09-13T11:15:39;100804.47;;;31.91;29.88
64889;BME280;51386;53.082;8.816;2022-09-13T11:22:02;100803.47;;;30.68;30.86
64889;BME280;51386;53.082;8.816;2022-09-13T11:24:56;100808.34;;;30.30;31.65
64889;BME280;51386;53.082;8.816;2022-09-13T11:27:39;100803.22;;;30.01;31.93
64889;BME280;51386;53.082;8.816;2022-09-13T11:30:17;100796.78;;;29.84;32.02
64889;BME280;51386;53.082;8.816;2022-09-13T11:33:20;100794.03;;;29.57;31.81
64889;BME280;51386;53.082;8.816;2022-09-13T11:39:10;100793.31;;;29.65;31.16
64889;BME280;51386;53.082;8.816;2022-09-13T11:41:47;100789.25;;;29.81;30.61
64889;BME280;51386;53.082;8.816;2022-09-13T11:44:49;100799.09;;;29.77;30.57
64889;BME280;51386;53.082;8.816;2022-09-13T11:47:39;100790.59;;;29.65;30.79
64889;BME280;51386;53.082;8.816;2022-09-13T11:50:38;100790.88;;;29.49;31.45
64889;BME280;51386;53.082;8.816;2022-09-13T11:53:45;100785.31;;;29.27;32.14
64889;BME280;51386;53.082;8.816;2022-09-13T11:56:21;100789.84;;;29.13;32.06
64889;BME280;51386;53.082;8.816;2022-09-13T11:58:55;100780.47;;;29.06;32.09
64889;BME280;51386;53.082;8.816;2022-09-13T12:01:31;100781.94;;;28.98;31.86
64889;BME280;51386;53.082;8.816;2022-09-13T12:04:08;100781.44;;;28.96;31.87
64889;BME280;51386;53.082;8.816;2022-09-13T12:06:44;100770.59;;;28.96;31.93
64889;BME280;51386;53.082;8.816;2022-09-13T12:09:18;100775.53;;;28.94;32.13
64889;BME280;51386;53.082;8.816;2022-09-13T12:11:52;100776.84;;;28.97;31.64
64889;BME280;51386;53.082;8.816;2022-09-13T12:14:25;100776.53;;;28.98;32.03
64889;BME280;51386;53.082;8.816;2022-09-13T12:16:58;100777.91;;;28.96;31.52
64889;BME280;51386;53.082;8.816;2022-09-13T12:19:40;100773.53;;;29.00;31.70
64889;BME280;51386;53.082;8.816;2022-09-13T12:22:10;100775.66;;;29.21;31.61
64889;BME280;51386;53.082;8.816;2022-09-13T12:24:44;100779.13;;;29.40;31.07
64889;BME280;51386;53.082;8.816;2022-09-13T12:27:26;100787.78;;;29.56;30.73
64889;BME280;51386;53.082;8.816;2022-09-13T12:30:15;100787.47;;;29.58;30.27
64889;BME280;51386;53.082;8.816;2022-09-13T12:32:45;100771.72;;;29.60;30.37
64889;BME280;51386;53.082;8.816;2022-09-13T12:35:25;100769.59;;;29.57;30.67
64889;BME280;51386;53.082;8.816;2022-09-13T12:38:26;100773.00;;;29.48;30.71
64889;BME280;51386;53.082;8.816;2022-09-13T12:41:31;100777.41;;;29.44;30.33
64889;BME280;51386;53.082;8.816;2022-09-13T12:44:37;100769.50;;;29.62;30.97
64889;BME280;51386;53.082;8.816;2022-09-13T12:47:52;100768.94;;;29.92;30.33
64889;BME280;51386;53.082;8.816;2022-09-13T12:50:42;100776.78;;;30.07;30.16
64889;BME280;51386;53.082;8.816;2022-09-13T12:53:55;100772.22;;;30.02;30.17
64889;BME280;51386;53.082;8.816;2022-09-13T12:57:00;100772.47;;;29.92;29.79
64889;BME280;51386;53.082;8.816;2022-09-13T13:00:10;100770.91;;;29.73;30.27
64889;BME280;51386;53.082;8.816;2022-09-13T13:02:44;100779.53;;;29.61;30.57
64889;BME280;51386;53.082;8.816;2022-09-13T13:05:29;100772.25;;;29.43;30.37
64889;BME280;51386;53.082;8.816;2022-09-13T13:08:03;100774.88;;;29.34;30.58
64889;BME280;51386;53.082;8.816;2022-09-13T13:10:35;100770.22;;;29.21;31.01
64889;BME280;51386;53.082;8.816;2022-09-13T13:13:12;100776.38;;;29.08;31.05
64889;BME280;51386;53.082;8.816;2022-09-13T13:16:02;100769.09;;;28.90;31.46
64889;BME280;51386;53.082;8.816;2022-09-13T13:18:43;100771.44;;;28.78;30.82
64889;BME280;51386;53.082;8.816;2022-09-13T13:21:39;100778.09;;;28.67;31.08
64889;BME280;51386;53.082;8.816;2022-09-13T13:24:46;100778.97;;;28.62;31.49
64889;BME280;51386;53.082;8.816;2022-09-13T13:27:40;100779.22;;;28.66;31.34
64889;BME280;51386;53.082;8.816;2022-09-13T13:30:46;100773.03;;;28.79;31.18
64889;BME280;51386;53.082;8.816;2022-09-13T13:33:21;100769.50;;;28.97;31.35
64889;BME280;51386;53.082;8.816;2022-09-13T13:35:49;100771.91;;;28.99;30.76
64889;BME280;51386;53.082;8.816;2022-09-13T13:38:44;100765.25;;;28.91;30.55
64889;BME280;51386;53.082;8.816;2022-09-13T13:41:38;100766.41;;;29.04;30.58
64889;BME280;51386;53.082;8.816;2022-09-13T13:44:56;100760.91;;;29.41;30.01
64889;BME280;51386;53.082;8.816;2022-09-13T13:48:09;100770.72;;;30.10;29.32